Time;durP1;ratioP1;P1;durP2;ratioP2;P2;SDS_P1;SDS_P2;PMS_P1;PMS_P2;Temp;Humidity;BMP_temperature;BMP_pressure;BME280_temperature;BME280_humidity;BME280_pressure;Samples;Min_cycle;Max_cycle;Signal;HPM_P1;HPM_P2
2022/02/10 00:07:48;;;;;;;0.85;0.50;;;20.90;61.70;;;;;;4942256;29;20028;-66
2022/02/10 00:15:53;;;;;;;0.50;0.50;;;20.90;61.80;;;;;;4941074;29;20552;-66
2022/02/10 00:21:11;;;;;;;0.43;0.43;;;20.90;61.70;;;;;;4936917;29;20060;-66
2022/02/10 00:34:58;;;;;;;0.68;0.47;;;20.90;61.70;;;;;;4908033;29;20067;-66
2022/02/10 00:37:35;;;;;;;0.40;0.40;;;20.90;61.70;;;;;;4931934;29;20048;-66
2022/02/10 00:40:12;;;;;;;0.40;0.40;;;20.90;61.70;;;;;;4932746;29;20430;-66
2022/02/10 00:42:38;;;;;;;0.50;0.50;;;20.90;61.70;;;;;;4932713;29;20040;-66
2022/02/10 00:45:04;;;;;;;0.57;0.57;;;20.90;61.70;;;;;;4932622;29;20039;-66
2022/02/10 00:47:37;;;;;;;0.50;0.50;;;20.90;61.70;;;;;;4932759;29;20027;-66
2022/02/10 00:50:05;;;;;;;;;;;20.90;61.60;;;;;;4932626;29;20106;-66
2022/02/10 00:52:30;;;;;;;0.43;0.43;;;20.90;61.60;;;;;;4932192;29;19910;-66
2022/02/10 00:54:56;;;;;;;0.40;0.40;;;20.90;61.90;;;;;;4932780;29;20039;-66
2022/02/10 00:57:24;;;;;;;0.95;0.50;;;20.90;61.80;;;;;;4943231;28;20046;-66
2022/02/10 01:12:57;;;;;;;0.50;0.50;;;20.90;61.70;;;;;;5032028;28;20033;-66
2022/02/10 01:31:40;;;;;;;0.60;0.60;;;20.90;61.70;;;;;;5015958;28;20133;-66
2022/02/10 01:34:05;;;;;;;0.85;0.60;;;20.90;61.70;;;;;;5031656;28;20844;-66
2022/02/10 01:36:31;;;;;;;0.40;0.40;;;21.00;61.70;;;;;;5013523;28;20030;-66
2022/02/10 01:38:57;;;;;;;0.88;0.50;;;21.00;61.70;;;;;;5031577;28;20097;-66
2022/02/10 01:58:07;;;;;;;0.43;0.43;;;20.90;61.70;;;;;;5016784;28;20103;-66
2022/02/10 02:03:26;;;;;;;2.90;0.50;;;20.90;61.70;;;;;;5035483;28;20113;-66
2022/02/10 02:05:59;;;;;;;0.52;0.50;;;21.00;61.80;;;;;;5034978;28;20017;-67
2022/02/10 02:08:27;;;;;;;0.45;0.45;;;21.00;61.80;;;;;;5035124;28;20475;-66
2022/02/10 02:10:53;;;;;;;0.50;0.50;;;20.90;61.70;;;;;;5017994;28;20064;-66
2022/02/10 02:13:19;;;;;;;0.38;0.38;;;20.90;61.70;;;;;;5017570;28;20053;-66
2022/02/10 02:15:45;;;;;;;0.43;0.43;;;21.00;61.70;;;;;;5001100;28;20041;-66
2022/02/10 02:18:10;;;;;;;1.40;0.50;;;21.00;61.70;;;;;;5034911;28;20030;-66
2022/02/10 02:20:36;;;;;;;0.60;0.60;;;20.90;61.60;;;;;;5034598;28;20061;-66
2022/02/10 02:23:03;;;;;;;0.68;0.60;;;21.00;61.70;;;;;;5017257;28;20029;-66
2022/02/10 02:25:28;;;;;;;1.10;0.40;;;21.00;61.70;;;;;;5034682;28;20017;-66
2022/02/10 02:27:57;;;;;;;0.28;0.28;;;21.00;61.70;;;;;;5034970;28;20514;-66
2022/02/10 02:30:29;;;;;;;0.82;0.57;;;21.00;61.70;;;;;;5034225;28;20017;-66
2022/02/10 02:33:29;;;;;;;0.47;0.47;;;21.00;61.70;;;;;;5017448;28;20530;-66
2022/02/10 03:08:17;;;;;;;0.70;0.50;;;20.90;61.70;;;;;;5033783;28;20029;-65
2022/02/10 03:13:16;;;;;;;2.80;0.45;;;20.80;61.60;;;;;;5033338;28;20029;-65
2022/02/10 04:04:53;;;;;;;0.57;0.55;;;20.40;61.70;;;;;;4991707;28;20066;-66
2022/02/10 04:10:08;;;;;;;0.73;0.40;;;20.30;61.70;;;;;;4991278;28;20050;-65
2022/02/10 05:34:42;;;;;;;0.50;0.30;;;19.70;62.00;;;;;;4955750;28;20019;-65
2022/02/10 05:37:08;;;;;;;0.30;0.30;;;19.70;62.00;;;;;;4974812;28;20030;-65
2022/02/10 05:39:38;;;;;;;0.35;0.30;;;19.70;62.00;;;;;;4974713;28;20037;-65
2022/02/10 05:58:09;;;;;;;0.22;0.22;;;19.70;62.20;;;;;;4897723;29;20045;-65
2022/02/10 06:40:37;;;;;;;0.40;0.40;;;19.40;62.50;;;;;;4950979;29;20075;-65
2022/02/10 06:52:29;;;;;;;2.58;0.40;;;19.40;62.60;;;;;;5034199;28;20083;-65
2022/02/10 07:10:45;;;;;;;1.77;0.20;;;19.30;62.50;;;;;;4987964;28;20073;-65
2022/02/10 10:05:36;;;;;;;2.25;1.05;;;18.40;61.90;;;;;;4919960;29;20529;-65
2022/02/10 10:10:57;;;;;;;2.20;0.90;;;18.40;61.70;;;;;;4905079;29;20031;-65
2022/02/10 10:26:47;;;;;;;2.25;0.82;;;18.40;61.70;;;;;;5009342;28;20034;-65
2022/02/10 10:52:10;;;;;;;2.35;0.70;;;18.30;61.80;;;;;;5017534;28;20032;-65
2022/02/10 10:57:10;;;;;;;0.43;0.35;;;18.30;61.80;;;;;;5034280;28;20056;-65
2022/02/10 10:59:53;;;;;;;2.67;0.98;;;18.30;61.70;;;;;;5033943;28;20025;-65
2022/02/10 11:38:48;;;;;;;1.27;0.68;;;18.20;61.70;;;;;;4973801;28;20118;-66
2022/02/10 14:09:46;;;;;;;0.70;0.40;;;18.10;61.40;;;;;;4995480;28;20033;-66
2022/02/10 14:14:48;;;;;;;0.95;0.47;;;18.10;61.50;;;;;;4996844;28;20026;-65
2022/02/10 14:17:25;;;;;;;0.95;0.30;;;18.10;61.40;;;;;;5035050;28;20021;-66
2022/02/10 14:19:59;;;;;;;0.73;0.40;;;18.10;61.40;;;;;;5035129;28;20079;-66
2022/02/10 14:22:38;;;;;;;0.75;0.40;;;18.10;61.50;;;;;;5034973;28;20025;-65
2022/02/10 14:27:48;;;;;;;0.63;0.40;;;18.10;61.40;;;;;;5034764;28;20119;-65
2022/02/10 14:30:15;;;;;;;0.40;0.30;;;18.10;61.40;;;;;;5017191;28;20049;-65
2022/02/10 14:32:44;;;;;;;0.30;0.30;;;18.20;61.40;;;;;;5034752;28;20049;-66
2022/02/10 14:35:17;;;;;;;0.70;0.32;;;18.10;61.30;;;;;;5034898;28;20017;-65
2022/02/10 14:40:44;;;;;;;0.85;0.43;;;18.10;61.30;;;;;;5034527;28;20112;-66
2022/02/10 15:11:07;;;;;;;0.28;0.28;;;18.10;61.40;;;;;;4921522;29;20083;-66
2022/02/10 15:16:55;;;;;;;0.38;0.30;;;18.10;61.30;;;;;;4933034;28;20469;-66
2022/02/10 16:14:22;;;;;;;0.38;0.28;;;18.10;61.20;;;;;;4993675;28;20026;-65
2022/02/10 16:18:22;;;;;;;0.10;0.10;;;18.10;61.20;;;;;;4992548;28;20088;-65
2022/02/10 16:20:56;;;;;;;0.30;0.20;;;18.10;61.30;;;;;;4993034;28;20030;-65
2022/02/10 16:23:24;;;;;;;0.38;0.38;;;18.10;61.20;;;;;;4993447;28;20105;-66
2022/02/10 16:26:01;;;;;;;0.30;0.30;;;18.10;61.20;;;;;;4993183;28;20513;-65
2022/02/10 16:28:30;;;;;;;0.30;0.30;;;18.10;61.10;;;;;;4993341;28;20075;-66
2022/02/10 16:30:56;;;;;;;0.57;0.20;;;18.10;61.10;;;;;;4993036;28;20023;-66
2022/02/10 16:33:22;;;;;;;0.20;0.20;;;18.10;61.10;;;;;;4992184;28;20025;-65
2022/02/10 16:35:47;;;;;;;0.20;0.20;;;18.10;61.10;;;;;;4992842;28;20033;-65
2022/02/10 16:38:13;;;;;;;0.35;0.35;;;18.00;61.00;;;;;;4993114;28;20018;-65
2022/02/10 16:40:39;;;;;;;0.10;0.10;;;18.10;61.10;;;;;;4993021;28;20456;-66
2022/02/10 16:43:05;;;;;;;0.40;0.30;;;18.10;61.10;;;;;;4992086;28;20504;-66
2022/02/10 16:45:31;;;;;;;0.32;0.28;;;18.10;61.10;;;;;;4993131;28;20026;-65
2022/02/10 16:47:57;;;;;;;0.47;0.30;;;18.10;61.10;;;;;;4993047;28;20026;-65
2022/02/10 16:50:23;;;;;;;0.52;0.20;;;18.10;61.10;;;;;;4991462;28;20030;-65
2022/02/10 16:52:56;;;;;;;0.40;0.32;;;18.10;61.10;;;;;;4991484;28;20452;-66
2022/02/10 17:27:10;;;;;;;0.55;0.40;;;18.10;61.10;;;;;;4952189;29;20042;-66
2022/02/10 17:53:27;;;;;;;0.55;0.30;;;18.00;61.00;;;;;;4920411;29;20035;-76
2022/02/10 17:55:54;;;;;;;0.55;0.40;;;18.00;61.20;;;;;;4931813;29;20039;-76
2022/02/10 17:58:25;;;;;;;0.70;0.35;;;18.10;61.30;;;;;;4928013;29;20028;-74
2022/02/10 18:00:52;;;;;;;0.90;0.40;;;18.10;61.30;;;;;;4920626;29;20043;-75
2022/02/10 18:03:20;;;;;;;0.50;0.43;;;18.10;61.30;;;;;;4911845;29;20031;-74
2022/02/10 18:08:41;;;;;;;0.35;0.35;;;18.10;61.30;;;;;;4914089;29;20036;-73
2022/02/10 18:14:46;;;;;;;0.32;0.32;;;18.20;61.30;;;;;;4953010;28;20045;-78
2022/02/10 18:16:49;;;;;;;0.40;0.40;;;18.20;61.30;;;;;;4990796;28;20081;-76
2022/02/10 18:24:46;;;;;;;0.85;0.50;;;18.30;61.40;;;;;;4987813;28;20456;-79
2022/02/10 19:02:57;;;;;;;0.45;0.45;;;18.50;61.40;;;;;;4993436;28;20068;-78
2022/02/10 19:10:36;;;;;;;0.60;0.45;;;18.60;61.30;;;;;;4988067;28;20551;-69
2022/02/10 19:13:02;;;;;;;1.10;0.52;;;18.60;61.30;;;;;;4994116;28;20030;-65
2022/02/10 19:15:34;;;;;;;0.52;0.50;;;18.60;61.30;;;;;;5008769;28;20045;-65
2022/02/10 19:18:04;;;;;;;0.68;0.60;;;18.70;61.20;;;;;;5033471;28;20029;-65
2022/02/10 19:20:32;;;;;;;1.10;0.52;;;18.70;61.20;;;;;;5033798;28;20495;-65
2022/02/10 19:22:58;;;;;;;0.60;0.60;;;18.70;61.10;;;;;;5033545;28;20029;-65
2022/02/10 19:25:23;;;;;;;0.63;0.50;;;18.70;61.00;;;;;;5016151;28;20021;-65
2022/02/10 19:27:49;;;;;;;1.95;0.60;;;18.70;61.00;;;;;;5033500;28;20041;-65
2022/02/10 19:30:20;;;;;;;0.38;0.38;;;18.70;60.90;;;;;;5032857;28;20044;-66
2022/02/10 19:32:50;;;;;;;1.25;0.50;;;18.70;60.90;;;;;;5015942;28;20014;-65
2022/02/10 19:35:19;;;;;;;1.13;0.60;;;18.70;60.90;;;;;;5033307;28;20013;-66
2022/02/10 19:37:45;;;;;;;0.80;0.63;;;18.70;60.80;;;;;;5033661;28;20021;-65
2022/02/10 19:40:11;;;;;;;0.60;0.50;;;18.70;60.80;;;;;;5032965;28;20026;-65
2022/02/10 19:42:39;;;;;;;0.85;0.45;;;18.70;60.80;;;;;;5032996;28;20021;-65
2022/02/10 19:45:06;;;;;;;0.70;0.63;;;18.70;60.70;;;;;;5015880;28;20018;-65
2022/02/10 19:47:33;;;;;;;0.50;0.50;;;18.70;60.70;;;;;;5033094;28;20021;-65
2022/02/10 19:49:59;;;;;;;1.95;0.50;;;18.70;60.70;;;;;;5015542;28;20021;-65
2022/02/10 19:52:25;;;;;;;0.65;0.60;;;18.70;60.70;;;;;;5033164;28;20506;-65
2022/02/10 19:54:53;;;;;;;0.65;0.45;;;18.70;60.70;;;;;;5015278;28;20014;-65
2022/02/10 19:57:21;;;;;;;0.80;0.50;;;18.70;60.60;;;;;;5032837;28;20480;-65
2022/02/10 19:59:47;;;;;;;0.68;0.47;;;18.70;60.60;;;;;;5033028;28;20021;-65
2022/02/10 20:02:13;;;;;;;2.30;0.65;;;18.70;60.60;;;;;;5014979;28;20380;-65
2022/02/10 20:04:39;;;;;;;0.90;0.60;;;18.70;60.50;;;;;;5015452;28;20029;-65
2022/02/10 20:07:05;;;;;;;1.02;0.60;;;18.70;60.60;;;;;;5032793;28;20083;-65
2022/02/10 20:09:30;;;;;;;0.77;0.60;;;18.70;60.60;;;;;;5032565;28;20013;-65
2022/02/10 20:11:57;;;;;;;1.67;0.65;;;18.70;60.60;;;;;;5032698;28;20057;-65
2022/02/10 20:14:23;;;;;;;0.93;0.52;;;18.60;60.50;;;;;;5032177;28;20049;-65
2022/02/10 20:16:53;;;;;;;0.60;0.60;;;18.70;60.60;;;;;;5014811;28;20050;-65
2022/02/10 20:19:18;;;;;;;0.45;0.40;;;18.60;60.50;;;;;;5014944;28;20032;-65
2022/02/10 20:21:44;;;;;;;1.48;0.70;;;18.60;60.60;;;;;;5013838;28;20112;-66
2022/02/10 20:24:10;;;;;;;0.50;0.50;;;18.70;60.60;;;;;;5032668;28;20031;-65
2022/02/10 20:26:35;;;;;;;0.65;0.63;;;18.60;60.50;;;;;;5031272;28;20564;-65
2022/02/10 20:29:01;;;;;;;0.90;0.70;;;18.60;60.50;;;;;;5032455;28;20091;-65
2022/02/10 20:31:29;;;;;;;0.40;0.40;;;18.60;60.50;;;;;;5032437;28;20033;-65
2022/02/10 20:33:55;;;;;;;1.27;0.70;;;18.60;60.60;;;;;;5032680;28;20014;-65
2022/02/10 20:36:21;;;;;;;1.52;1.10;;;18.60;60.60;;;;;;5014874;28;20060;-65
2022/02/10 20:38:49;;;;;;;1.10;0.70;;;18.60;60.50;;;;;;5031930;28;20029;-65
2022/02/10 20:41:17;;;;;;;0.55;0.50;;;18.60;60.50;;;;;;5014802;28;20030;-65
2022/02/10 20:43:45;;;;;;;0.80;0.55;;;18.60;60.60;;;;;;5015224;28;20025;-65
2022/02/10 20:46:14;;;;;;;1.23;0.60;;;18.60;60.50;;;;;;5032229;28;20076;-65
2022/02/10 20:48:41;;;;;;;1.60;0.60;;;18.60;60.60;;;;;;5015352;28;20021;-65
2022/02/10 20:51:09;;;;;;;0.88;0.60;;;18.60;60.60;;;;;;5032274;28;20014;-65
2022/02/10 20:53:37;;;;;;;1.17;0.70;;;18.60;60.60;;;;;;5032181;28;20025;-65
2022/02/10 20:56:04;;;;;;;0.68;0.68;;;18.60;60.60;;;;;;5014637;28;20063;-65
2022/02/10 20:58:30;;;;;;;1.60;0.65;;;18.60;60.60;;;;;;5014840;28;20021;-65
2022/02/10 21:00:59;;;;;;;0.98;0.60;;;18.60;60.60;;;;;;5032427;28;20057;-65
2022/02/10 21:03:27;;;;;;;0.82;0.52;;;18.60;60.60;;;;;;5031981;28;20068;-65
2022/02/10 21:06:02;;;;;;;0.60;0.60;;;18.50;60.50;;;;;;5031615;28;20028;-65
2022/02/10 21:08:45;;;;;;;0.65;0.63;;;18.50;60.50;;;;;;5015937;28;20021;-65
2022/02/10 21:11:11;;;;;;;4.13;0.82;;;18.50;60.50;;;;;;5031942;28;20084;-65
2022/02/10 21:13:37;;;;;;;0.82;0.77;;;18.50;60.60;;;;;;5032119;28;20025;-65
2022/02/10 21:16:03;;;;;;;0.60;0.60;;;18.50;60.60;;;;;;5031952;28;20041;-65
2022/02/10 21:18:29;;;;;;;1.20;0.85;;;18.50;60.60;;;;;;5032311;28;20025;-65
2022/02/10 21:21:01;;;;;;;1.00;0.88;;;18.50;60.50;;;;;;5032058;28;20029;-65
2022/02/10 21:23:37;;;;;;;1.75;0.80;;;18.50;60.60;;;;;;5032071;28;20026;-65
2022/02/10 21:26:04;;;;;;;1.95;0.50;;;18.50;60.60;;;;;;5015819;28;20112;-65
2022/02/10 21:28:36;;;;;;;0.80;0.70;;;18.50;61.70;;;;;;5032034;28;20028;-65
2022/02/10 21:31:05;;;;;;;0.80;0.52;;;18.50;60.70;;;;;;5032246;28;20053;-65
2022/02/10 21:38:29;;;;;;;1.25;0.68;;;18.50;60.60;;;;;;5031938;28;20159;-65
2022/02/10 22:20:59;;;;;;;0.63;0.60;;;18.30;60.80;;;;;;4935782;29;20035;-65
2022/02/10 22:23:27;;;;;;;1.10;0.63;;;18.30;60.80;;;;;;4935066;29;20515;-65
2022/02/10 22:25:57;;;;;;;0.75;0.65;;;18.40;60.90;;;;;;4935837;29;20026;-65
2022/02/10 22:36:07;;;;;;;0.55;0.55;;;18.30;60.80;;;;;;4935425;29;20487;-65
2022/02/10 22:38:35;;;;;;;0.90;0.70;;;18.40;60.90;;;;;;4934994;29;20059;-65
2022/02/10 22:41:08;;;;;;;0.60;0.60;;;18.30;60.90;;;;;;4942740;28;20032;-65
2022/02/10 22:43:34;;;;;;;1.50;0.70;;;18.40;60.90;;;;;;4998505;28;20037;-65
2022/02/10 22:46:00;;;;;;;0.77;0.60;;;18.40;60.90;;;;;;5015009;28;20018;-65
2022/02/10 22:48:25;;;;;;;2.70;0.77;;;18.40;61.00;;;;;;5014607;28;20064;-65
2022/02/10 22:50:51;;;;;;;0.70;0.63;;;18.40;61.00;;;;;;5014802;28;20029;-65
2022/02/10 22:53:17;;;;;;;0.63;0.60;;;18.40;60.90;;;;;;5029301;28;20033;-65
2022/02/10 22:55:42;;;;;;;0.60;0.60;;;18.40;61.00;;;;;;5034388;28;20041;-65
2022/02/10 22:58:08;;;;;;;0.73;0.70;;;18.40;61.00;;;;;;5034535;28;20022;-65
2022/02/10 23:00:35;;;;;;;0.43;0.43;;;18.30;60.90;;;;;;5034375;28;20065;-65
2022/02/10 23:03:00;;;;;;;0.70;0.65;;;18.40;61.00;;;;;;5034249;28;20504;-65
2022/02/10 23:05:26;;;;;;;0.77;0.77;;;18.40;61.00;;;;;;5034230;28;20080;-65
2022/02/10 23:07:56;;;;;;;0.80;0.52;;;18.30;61.00;;;;;;5033792;28;20029;-65
2022/02/10 23:13:29;;;;;;;0.70;0.70;;;18.40;61.00;;;;;;4973130;28;20049;-65
2022/02/10 23:16:00;;;;;;;2.22;0.90;;;18.30;61.10;;;;;;4973157;28;20039;-65
2022/02/10 23:18:28;;;;;;;3.25;0.70;;;18.30;61.10;;;;;;4957017;28;20166;-65
2022/02/10 23:20:55;;;;;;;0.70;0.60;;;18.30;61.10;;;;;;4972827;28;20030;-65
2022/02/10 23:23:21;;;;;;;0.55;0.55;;;18.40;61.10;;;;;;4957285;28;20069;-65
2022/02/10 23:25:49;;;;;;;5.90;1.33;;;18.30;61.20;;;;;;4973160;28;20031;-65
2022/02/10 23:28:19;;;;;;;0.98;0.70;;;18.30;61.10;;;;;;4972067;28;20078;-65
2022/02/10 23:30:46;;;;;;;1.38;0.75;;;18.40;61.20;;;;;;4972734;28;20397;-65
2022/02/10 23:33:18;;;;;;;0.73;0.60;;;18.40;61.10;;;;;;4973002;28;20633;-65
2022/02/10 23:36:30;;;;;;;1.00;0.80;;;18.30;61.10;;;;;;4972369;28;20084;-65
2022/02/10 23:43:34;;;;;;;0.70;0.70;;;18.30;61.20;;;;;;4972491;28;20042;-65
2022/02/10 23:46:00;;;;;;;0.60;0.57;;;18.40;61.20;;;;;;4972793;28;20023;-65
2022/02/10 23:48:28;;;;;;;1.55;0.68;;;18.40;61.20;;;;;;4984493;28;20042;-65
2022/02/10 23:50:53;;;;;;;0.65;0.65;;;18.40;61.20;;;;;;5013343;28;20144;-65
2022/02/10 23:53:19;;;;;;;1.10;0.70;;;18.30;61.20;;;;;;5007785;28;20104;-65
2022/02/10 23:55:46;;;;;;;0.75;0.70;;;18.40;61.30;;;;;;5013645;28;20026;-66
